Time;durP1;ratioP1;P1;durP2;ratioP2;P2;SDS_P1;SDS_P2;PMS_P1;PMS_P2;Temp;Humidity;BMP_temperature;BMP_pressure;BME280_temperature;BME280_humidity;BME280_pressure;Samples;Min_cycle;Max_cycle;Signal;HPM_P1;HPM_P2
2021/09/01 03:54:57;;;;;;;11.35;7.45;;;;;;;10.64;86.78;100509.47;5007558;28;106166;-66
2021/09/01 03:57:23;;;;;;;12.90;8.48;;;;;;;10.68;87.40;100508.16;5005770;28;106413;-65
2021/09/01 03:59:48;;;;;;;14.07;8.52;;;;;;;10.76;87.45;100518.81;5005647;28;105728;-66
2021/09/01 04:02:14;;;;;;;14.85;9.00;;;;;;;10.78;86.89;100516.00;5005136;28;106925;-67
2021/09/01 04:04:39;;;;;;;15.32;8.60;;;;;;;10.82;87.29;100506.66;5005323;28;106043;-66
2021/09/01 04:07:05;;;;;;;14.65;8.35;;;;;;;10.84;87.26;100524.16;5006214;28;105979;-66
2021/09/01 04:09:31;;;;;;;15.98;8.70;;;;;;;10.87;87.13;100524.81;5005078;28;105907;-66
2021/09/01 04:11:56;;;;;;;11.80;8.13;;;;;;;10.90;87.25;100525.34;5004385;28;105927;-65
2021/09/01 04:14:22;;;;;;;14.43;8.43;;;;;;;10.96;87.08;100523.84;5004504;28;105971;-65
2021/09/01 04:16:47;;;;;;;12.40;8.50;;;;;;;11.00;87.17;100525.19;5006120;28;105801;-65
2021/09/01 04:19:12;;;;;;;15.13;8.82;;;;;;;11.03;87.43;100524.88;5005244;28;106117;-65
2021/09/01 04:21:38;;;;;;;13.48;7.65;;;;;;;11.08;88.01;100530.53;5005082;28;106314;-66
2021/09/01 04:24:03;;;;;;;14.30;7.82;;;;;;;11.11;87.24;100529.38;5004916;28;106440;-66
2021/09/01 04:26:29;;;;;;;12.15;8.27;;;;;;;11.13;87.90;100530.03;5005497;28;106332;-66
2021/09/01 04:28:54;;;;;;;15.70;8.02;;;;;;;11.17;87.59;100537.53;5004959;28;106136;-66
2021/09/01 04:31:19;;;;;;;12.43;7.63;;;;;;;11.21;87.44;100545.19;5004569;28;106652;-66
2021/09/01 04:33:45;;;;;;;14.45;8.02;;;;;;;11.24;87.71;100543.03;5004257;28;106293;-66
2021/09/01 04:36:10;;;;;;;12.10;7.20;;;;;;;11.26;87.40;100548.22;5005335;28;106110;-66
2021/09/01 04:38:36;;;;;;;14.23;7.40;;;;;;;11.30;87.42;100546.88;5004803;28;105768;-65
2021/09/01 04:41:01;;;;;;;13.02;7.35;;;;;;;11.31;87.44;100545.88;5004221;28;105806;-66
2021/09/01 04:43:26;;;;;;;10.40;7.50;;;;;;;11.34;87.51;100546.41;5004192;28;106144;-66
2021/09/01 04:45:52;;;;;;;10.02;6.88;;;;;;;11.42;87.44;100544.72;5004723;28;106115;-66
2021/09/01 04:48:17;;;;;;;13.82;7.22;;;;;;;11.47;87.68;100534.38;5003104;28;105988;-67
2021/09/01 04:50:42;;;;;;;13.07;7.75;;;;;;;11.52;87.80;100540.88;5003167;28;106044;-66
2021/09/01 04:53:08;;;;;;;11.43;7.57;;;;;;;11.60;87.58;100549.88;5003673;28;106152;-67
2021/09/01 04:55:33;;;;;;;13.02;7.97;;;;;;;11.66;87.37;100544.69;5004755;28;105771;-66
2021/09/01 04:58:00;;;;;;;11.23;7.38;;;;;;;11.73;87.97;100544.88;5004038;28;106279;-66
2021/09/01 05:00:26;;;;;;;13.85;7.38;;;;;;;11.81;87.59;100552.00;5004440;28;105964;-66
2021/09/01 05:02:51;;;;;;;12.40;7.43;;;;;;;11.89;87.46;100559.19;5004214;28;105850;-66
2021/09/01 05:05:17;;;;;;;10.77;7.13;;;;;;;11.93;87.60;100557.84;4997716;28;105966;-69
2021/09/01 05:07:42;;;;;;;10.98;7.22;;;;;;;12.03;87.66;100563.84;4991213;28;106156;-67
2021/09/01 05:10:08;;;;;;;13.65;7.88;;;;;;;12.13;87.22;100566.34;4990695;28;110696;-66
2021/09/01 05:12:33;;;;;;;10.52;7.10;;;;;;;12.21;86.97;100565.50;4990355;28;105984;-67
2021/09/01 05:14:58;;;;;;;10.05;6.78;;;;;;;12.28;86.76;100564.59;4991651;28;105871;-66
2021/09/01 05:17:24;;;;;;;11.00;6.88;;;;;;;12.36;87.02;100563.75;4991208;28;106174;-66
2021/09/01 05:19:50;;;;;;;9.27;6.85;;;;;;;12.43;86.90;100561.22;4990709;28;105886;-65
2021/09/01 05:22:17;;;;;;;10.02;6.30;;;;;;;12.51;86.94;100570.03;4990687;28;106107;-65
2021/09/01 05:25:10;;;;;;;11.10;6.47;;;;;;;12.63;86.87;100574.97;4991462;28;106137;-64
2021/09/01 05:27:38;;;;;;;12.63;6.68;;;;;;;12.73;86.84;100575.63;4990747;28;105757;-65
2021/09/01 05:30:06;;;;;;;16.00;8.57;;;;;;;12.82;86.61;100579.06;4989710;28;106696;-63
2021/09/01 05:32:35;;;;;;;10.45;6.22;;;;;;;12.92;86.55;100573.53;4990037;28;106054;-67
2021/09/01 05:35:01;;;;;;;10.52;6.05;;;;;;;13.04;86.04;100580.13;4990574;28;105933;-67
2021/09/01 05:37:28;;;;;;;11.27;6.32;;;;;;;13.16;86.45;100576.03;4990561;28;106123;-66
2021/09/01 05:39:57;;;;;;;11.63;6.68;;;;;;;13.29;86.20;100579.97;4989702;28;105795;-65
2021/09/01 05:42:25;;;;;;;9.37;6.33;;;;;;;13.45;86.33;100579.88;4989816;28;106327;-66
2021/09/01 05:44:51;;;;;;;10.52;6.20;;;;;;;13.63;85.93;100590.25;4990135;28;105977;-66
2021/09/01 05:47:18;;;;;;;13.13;6.47;;;;;;;13.84;86.13;100575.34;4990050;28;106250;-65
2021/09/01 05:49:46;;;;;;;13.27;9.57;;;;;;;14.04;85.56;100589.88;4989608;28;105932;-66
2021/09/01 05:52:12;;;;;;;21.13;12.60;;;;;;;14.20;85.40;100588.88;4989151;28;105932;-65
2021/09/01 05:54:42;;;;;;;8.73;5.93;;;;;;;14.35;84.87;100593.38;4989364;28;105851;-66
2021/09/01 05:57:09;;;;;;;;;;;;;;;14.47;84.34;100597.25;4990571;28;106219;-66
2021/09/01 05:59:43;;;;;;;10.75;5.93;;;;;;;14.60;84.47;100596.63;4989848;28;105997;-66
2021/09/01 06:02:14;;;;;;;9.25;6.45;;;;;;;14.73;83.64;100593.28;4989529;28;106596;-65
2021/09/01 06:04:42;;;;;;;16.50;6.15;;;;;;;14.84;83.76;100594.66;4990569;28;106365;-66
2021/09/01 06:07:13;;;;;;;10.80;5.53;;;;;;;14.99;83.53;100602.66;4989689;28;106270;-65
2021/09/01 06:09:42;;;;;;;9.68;6.25;;;;;;;15.14;83.81;100597.25;4989341;28;105924;-66
2021/09/01 06:12:08;;;;;;;9.45;5.47;;;;;;;15.33;83.52;100601.97;4989458;28;105799;-66
2021/09/01 06:14:34;;;;;;;10.65;5.32;;;;;;;15.45;82.66;100601.50;4989912;28;105921;-65
2021/09/01 06:16:59;;;;;;;9.40;5.43;;;;;;;15.49;82.26;100608.97;4988556;28;106096;-66
2021/09/01 06:19:24;;;;;;;7.35;5.00;;;;;;;15.57;82.10;100599.94;4989405;28;106136;-67
2021/09/01 06:21:50;;;;;;;8.20;5.10;;;;;;;15.69;81.94;100605.63;4989440;28;105942;-67
2021/09/01 06:24:15;;;;;;;10.65;5.45;;;;;;;15.86;82.07;100601.66;4990391;28;105908;-66
2021/09/01 06:26:40;;;;;;;8.02;5.47;;;;;;;15.99;81.72;100608.16;4989831;28;106273;-65
2021/09/01 06:29:06;;;;;;;7.57;4.82;;;;;;;16.20;81.88;100609.97;4989243;28;106030;-65
2021/09/01 06:31:34;;;;;;;10.82;5.57;;;;;;;16.42;81.75;100616.09;4989509;28;105962;-65
2021/09/01 06:34:00;;;;;;;9.27;5.15;;;;;;;16.63;81.22;100617.84;4990293;28;106377;-64
2021/09/01 06:36:25;;;;;;;9.30;5.20;;;;;;;16.79;80.35;100611.28;4989867;28;106288;-63
2021/09/01 06:38:51;;;;;;;10.30;5.28;;;;;;;16.94;80.04;100629.19;4989510;28;106554;-64
2021/09/01 06:41:16;;;;;;;8.02;4.95;;;;;;;17.06;79.80;100620.31;4989607;28;106111;-66
2021/09/01 06:43:41;;;;;;;17.75;11.35;;;;;;;17.18;79.16;100617.03;4989816;28;105786;-65
2021/09/01 06:46:06;;;;;;;10.80;6.10;;;;;;;17.32;79.03;100628.66;4988524;28;106106;-64
2021/09/01 06:48:32;;;;;;;9.70;5.15;;;;;;;17.52;78.84;100628.69;4989121;28;106093;-64
2021/09/01 06:50:57;;;;;;;11.27;4.85;;;;;;;17.68;78.42;100612.13;4988850;28;109449;-65
2021/09/01 06:53:22;;;;;;;13.02;4.85;;;;;;;17.83;78.15;100622.69;4988932;28;105859;-64
2021/09/01 06:55:48;;;;;;;8.07;4.68;;;;;;;18.06;78.01;100610.69;4988814;28;107532;-65
2021/09/01 06:58:15;;;;;;;8.02;4.38;;;;;;;18.28;77.61;100622.06;4986860;28;108633;-65
2021/09/01 07:00:40;;;;;;;8.43;4.50;;;;;;;18.46;76.89;100625.97;4988899;28;106046;-64
2021/09/01 07:03:06;;;;;;;6.88;4.40;;;;;;;18.63;76.24;100623.63;4990113;28;106471;-64
2021/09/01 07:05:32;;;;;;;6.50;3.88;;;;;;;18.78;75.64;100622.31;4988966;28;106258;-64
2021/09/01 07:07:57;;;;;;;6.50;3.67;;;;;;;18.92;74.93;100633.91;4988804;28;106166;-65
2021/09/01 07:10:22;;;;;;;5.80;3.80;;;;;;;19.15;74.63;100632.56;4988729;28;106169;-65
2021/09/01 07:12:47;;;;;;;8.38;3.92;;;;;;;19.30;73.25;100634.13;4989605;28;106388;-65
2021/09/01 07:15:13;;;;;;;7.55;3.90;;;;;;;19.39;72.14;100638.25;4988787;28;106397;-65
2021/09/01 07:17:41;;;;;;;9.35;4.43;;;;;;;19.56;72.34;100643.94;4988255;28;106432;-66
2021/09/01 07:20:07;;;;;;;9.63;4.00;;;;;;;19.76;72.50;100635.69;4988398;28;105801;-65
2021/09/01 07:22:32;;;;;;;8.98;4.43;;;;;;;20.09;72.09;100637.28;4989222;28;105819;-64
2021/09/01 07:24:58;;;;;;;13.63;7.88;;;;;;;20.26;70.51;100634.84;4988781;28;106170;-63
2021/09/01 07:27:24;;;;;;;5.47;4.20;;;;;;;20.32;69.32;100639.34;4987138;28;105689;-63
2021/09/01 07:29:49;;;;;;;7.00;3.80;;;;;;;20.52;69.68;100641.88;4987770;28;105800;-63
2021/09/01 07:32:14;;;;;;;7.65;3.70;;;;;;;21.04;70.27;100638.75;4988943;28;105912;-63
2021/09/01 07:34:39;;;;;;;7.47;3.95;;;;;;;21.63;69.65;100647.09;4993373;28;106321;-61
2021/09/01 07:37:05;;;;;;;8.15;3.53;;;;;;;21.93;66.25;100638.06;4998047;28;108459;-64
2021/09/01 07:39:30;;;;;;;5.22;3.38;;;;;;;21.68;65.12;100648.28;4992801;28;106645;-63
2021/09/01 07:41:55;;;;;;;6.30;3.20;;;;;;;21.44;64.23;100650.91;4993200;28;106368;-66
2021/09/01 07:44:21;;;;;;;5.43;3.38;;;;;;;21.32;64.50;100650.88;4996489;28;106352;-64
2021/09/01 07:46:46;;;;;;;8.63;3.33;;;;;;;21.12;63.20;100651.16;4994395;28;106024;-65
2021/09/01 07:49:12;;;;;;;8.80;3.08;;;;;;;20.73;62.13;100654.13;4988014;28;106248;-64
2021/09/01 07:51:37;;;;;;;6.72;3.22;;;;;;;20.59;63.71;100653.44;4988890;28;105953;-64
2021/09/01 07:54:02;;;;;;;6.63;3.42;;;;;;;20.60;63.53;100655.09;4987969;28;106196;-63
2021/09/01 07:56:28;;;;;;;7.57;3.35;;;;;;;20.85;64.00;100656.91;4987782;28;106015;-65
2021/09/01 07:58:53;;;;;;;5.20;3.17;;;;;;;21.23;63.93;100661.22;4987989;28;106037;-64
2021/09/01 08:01:18;;;;;;;7.38;3.70;;;;;;;21.75;63.81;100659.88;4988690;28;105842;-67
2021/09/01 08:03:44;;;;;;;4.88;2.88;;;;;;;22.35;62.91;100658.03;4988007;28;106050;-67
2021/09/01 08:06:09;;;;;;;8.82;3.90;;;;;;;22.89;62.42;100658.63;4987700;28;108747;-66
2021/09/01 08:08:35;;;;;;;5.97;3.33;;;;;;;23.48;61.18;100665.75;4987411;28;105902;-62
2021/09/01 08:11:00;;;;;;;9.00;3.05;;;;;;;24.17;59.96;100667.44;4988217;28;105980;-63
2021/09/01 08:13:26;;;;;;;7.68;2.92;;;;;;;24.59;58.16;100666.97;4986694;28;106123;-64
2021/09/01 08:15:52;;;;;;;6.13;3.20;;;;;;;24.95;56.78;100667.41;4984268;28;106666;-62
2021/09/01 08:18:17;;;;;;;5.85;3.03;;;;;;;25.21;55.56;100669.63;4987324;28;105967;-62
2021/09/01 08:20:43;;;;;;;6.10;2.80;;;;;;;25.40;54.53;100678.31;4987741;28;106320;-62
2021/09/01 08:23:08;;;;;;;7.38;4.13;;;;;;;25.60;53.38;100672.19;4987642;28;106212;-63
2021/09/01 08:25:34;;;;;;;10.68;8.10;;;;;;;25.72;52.43;100682.94;4987125;28;107031;-63
2021/09/01 08:28:00;;;;;;;8.20;3.28;;;;;;;25.68;50.15;100682.63;4987532;28;105980;-66
2021/09/01 08:30:25;;;;;;;6.88;2.83;;;;;;;25.97;50.49;100677.69;4987994;28;106391;-66
2021/09/01 08:32:50;;;;;;;5.63;2.83;;;;;;;26.09;48.72;100688.44;4986827;28;106355;-66
2021/09/01 08:35:16;;;;;;;5.70;2.83;;;;;;;26.33;47.94;100688.06;4986913;28;106853;-66
2021/09/01 08:37:41;;;;;;;6.57;2.70;;;;;;;26.66;47.12;100673.22;4987225;28;106075;-64
2021/09/01 08:40:08;;;;;;;5.15;2.63;;;;;;;27.05;45.83;100679.41;4988427;28;106040;-63
2021/09/01 08:42:36;;;;;;;7.55;2.65;;;;;;;27.62;45.06;100686.66;4990621;28;106012;-63
2021/09/01 08:45:02;;;;;;;6.25;2.97;;;;;;;28.49;43.32;100685.78;4990247;28;106976;-63
2021/09/01 08:47:29;;;;;;;4.63;2.65;;;;;;;29.11;41.51;100681.97;4990247;28;106007;-64
2021/09/01 08:49:55;;;;;;;7.10;2.78;;;;;;;30.04;38.96;100690.41;4991223;28;106122;-61
2021/09/01 08:52:21;;;;;;;6.40;2.85;;;;;;;31.17;38.18;100705.63;4990000;28;106557;-63
2021/09/01 08:54:46;;;;;;;6.00;2.40;;;;;;;34.16;34.54;100707.19;4989903;28;106550;-64
2021/09/01 08:57:12;;;;;;;6.03;2.70;;;;;;;37.46;28.04;100699.88;4990277;28;106302;-63
2021/09/01 08:59:38;;;;;;;6.15;2.50;;;;;;;38.15;24.85;100691.16;4990916;28;106396;-63
2021/09/01 09:02:03;;;;;;;7.85;2.95;;;;;;;37.28;25.01;100692.81;4989889;28;106005;-62
2021/09/01 09:04:38;;;;;;;6.10;2.80;;;;;;;35.96;26.20;100695.47;4990024;28;106230;-62
2021/09/01 09:07:06;;;;;;;4.20;2.70;;;;;;;35.55;26.06;100703.16;4989765;28;106187;-61
2021/09/01 09:09:34;;;;;;;4.15;2.45;;;;;;;37.53;24.89;100699.34;4990556;28;105822;-62
2021/09/01 09:12:01;;;;;;;7.20;2.60;;;;;;;39.58;22.41;100705.16;4989353;28;106289;-61
2021/09/01 09:14:29;;;;;;;5.60;3.15;;;;;;;40.18;21.43;100698.81;4989870;28;105971;-60
2021/09/01 09:17:14;;;;;;;6.28;2.67;;;;;;;39.47;21.50;100696.47;4989838;28;105936;-61
2021/09/01 09:19:53;;;;;;;6.32;2.60;;;;;;;37.59;22.90;100697.97;4990758;28;106038;-60
2021/09/01 09:22:25;;;;;;;5.32;2.72;;;;;;;39.97;22.10;100704.59;4990106;28;106189;-61
2021/09/01 09:25:09;;;;;;;3.75;2.13;;;;;;;42.09;19.29;100697.25;4990098;28;106110;-63
2021/09/01 09:28:00;;;;;;;5.95;2.75;;;;;;;40.48;19.74;100695.50;4989677;28;106416;-62
2021/09/01 09:30:44;;;;;;;5.63;2.63;;;;;;;38.74;20.98;100698.28;4990744;28;106007;-63
2021/09/01 09:33:21;;;;;;;7.32;2.90;;;;;;;39.18;20.71;100704.03;4990059;28;106294;-63
2021/09/01 09:35:51;;;;;;;4.40;2.60;;;;;;;39.86;20.47;100704.31;4989935;28;105842;-63
2021/09/01 09:38:31;;;;;;;5.25;2.90;;;;;;;39.86;19.64;100704.31;4989576;28;105852;-63
2021/09/01 09:40:58;;;;;;;4.97;2.47;;;;;;;38.31;20.82;100696.91;4990979;28;105959;-64
2021/09/01 09:43:24;;;;;;;6.07;2.92;;;;;;;37.32;21.86;100696.56;4989864;28;106315;-63
2021/09/01 09:46:00;;;;;;;7.40;2.97;;;;;;;37.07;22.72;100700.03;4989595;28;106403;-62
2021/09/01 09:48:28;;;;;;;4.72;2.42;;;;;;;39.26;20.70;100710.63;4988172;28;106841;-62
2021/09/01 09:50:53;;;;;;;5.90;2.90;;;;;;;37.48;21.34;100713.44;4990098;28;105958;-61
2021/09/01 09:53:28;;;;;;;4.85;2.55;;;;;;;37.84;21.27;100714.72;4989375;28;106064;-61
2021/09/01 09:56:10;;;;;;;4.93;2.30;;;;;;;36.78;21.42;100723.03;4989515;28;105836;-61
2021/09/01 09:58:41;;;;;;;3.70;2.22;;;;;;;35.15;22.87;100717.16;4989468;28;105834;-62
2021/09/01 10:01:09;;;;;;;4.60;2.60;;;;;;;33.20;24.52;100715.56;4990281;28;105940;-62
2021/09/01 10:03:36;;;;;;;5.95;2.80;;;;;;;33.93;24.59;100718.31;4989442;28;106336;-60
2021/09/01 10:06:03;;;;;;;5.03;2.75;;;;;;;36.12;22.21;100727.06;4989266;28;106041;-61
2021/09/01 10:08:30;;;;;;;6.10;2.78;;;;;;;34.68;22.87;100721.28;4988864;28;105899;-61
2021/09/01 10:10:59;;;;;;;4.28;2.63;;;;;;;33.50;24.27;100721.53;4989852;28;106074;-61
2021/09/01 10:13:25;;;;;;;6.07;2.87;;;;;;;32.85;25.29;100723.50;4988979;28;105983;-61
2021/09/01 10:15:52;;;;;;;5.20;2.53;;;;;;;35.78;23.43;100723.19;4989147;28;106894;-60
2021/09/01 10:18:18;;;;;;;4.97;2.78;;;;;;;38.74;19.86;100717.78;4988921;28;105824;-60
2021/09/01 10:20:45;;;;;;;4.85;2.40;;;;;;;41.03;17.71;100721.56;4989866;28;106257;-62
2021/09/01 10:23:10;;;;;;;7.93;2.80;;;;;;;40.21;17.95;100721.19;4989206;28;106193;-62
2021/09/01 10:25:50;;;;;;;6.47;2.42;;;;;;;38.71;18.59;100718.47;4988544;28;106558;-61
2021/09/01 10:28:32;;;;;;;6.50;2.70;;;;;;;38.89;19.39;100719.84;4987830;28;105821;-63
2021/09/01 10:31:10;;;;;;;5.72;2.47;;;;;;;41.10;17.30;100718.91;4989384;28;105802;-62
2021/09/01 10:33:47;;;;;;;6.32;2.78;;;;;;;42.61;16.45;100718.13;4989053;28;106372;-62
2021/09/01 10:36:24;;;;;;;5.82;2.97;;;;;;;44.48;15.02;100713.03;4988544;28;106490;-61
2021/09/01 10:39:03;;;;;;;6.85;2.80;;;;;;;45.72;13.88;100709.59;4988048;28;107011;-62
2021/09/01 10:41:33;;;;;;;5.93;2.35;;;;;;;47.32;12.52;100706.16;4989236;28;106040;-62
2021/09/01 10:44:08;;;;;;;6.88;2.33;;;;;;;48.43;11.73;100704.50;4988652;28;106075;-61
2021/09/01 10:46:51;;;;;;;3.75;2.33;;;;;;;48.33;11.73;100707.47;4988539;28;107983;-62
2021/09/01 10:49:18;;;;;;;8.38;2.80;;;;;;;48.00;11.84;100698.44;4988611;28;106456;-62
2021/09/01 10:52:09;;;;;;;4.32;2.03;;;;;;;47.10;12.54;100711.09;4989147;28;105752;-63
2021/09/01 10:54:36;;;;;;;3.55;2.20;;;;;;;48.35;11.80;100702.97;4986836;28;106166;-63
2021/09/01 10:57:07;;;;;;;3.83;2.15;;;;;;;49.53;11.20;100702.78;4988862;28;106875;-62
2021/09/01 10:59:38;;;;;;;8.38;2.50;;;;;;;48.58;11.18;100701.56;4988525;28;105860;-63
2021/09/01 11:02:13;;;;;;;9.93;8.02;;;;;;;49.67;10.43;100703.84;4988961;28;105797;-63
2021/09/01 11:04:46;;;;;;;4.78;2.63;;;;;;;50.36;10.36;100700.66;4988087;28;106317;-64
2021/09/01 11:07:18;;;;;;;4.50;2.33;;;;;;;49.07;10.52;100707.06;4988308;28;108134;-64
2021/09/01 11:09:44;;;;;;;4.07;2.30;;;;;;;47.40;11.48;100696.47;4988397;28;106189;-63
2021/09/01 11:12:13;;;;;;;6.38;2.60;;;;;;;47.39;11.30;100706.13;4989046;28;105928;-64
2021/09/01 11:14:38;;;;;;;4.85;1.90;;;;;;;47.47;11.25;100706.09;4987927;28;106205;-61
2021/09/01 11:17:14;;;;;;;6.35;2.50;;;;;;;47.43;10.84;100692.81;4988398;28;106712;-62
2021/09/01 11:19:41;;;;;;;5.43;2.40;;;;;;;47.59;10.85;100697.94;4988034;28;106037;-62
2021/09/01 11:22:12;;;;;;;4.30;2.08;;;;;;;48.06;10.54;100708.88;4988979;28;106463;-63
2021/09/01 11:24:47;;;;;;;8.65;2.53;;;;;;;48.35;10.20;100708.63;4988443;28;106172;-63
2021/09/01 11:27:14;;;;;;;4.80;2.42;;;;;;;48.28;10.53;100714.38;4988351;28;105900;-63
2021/09/01 11:29:40;;;;;;;3.85;2.00;;;;;;;48.92;9.90;100717.75;4987822;28;105955;-63
2021/09/01 11:32:06;;;;;;;3.25;2.30;;;;;;;48.54;9.83;100715.72;4989117;28;105985;-64
2021/09/01 11:34:31;;;;;;;3.58;2.03;;;;;;;48.12;9.88;100712.88;4988564;28;106278;-64
2021/09/01 11:36:57;;;;;;;4.75;2.30;;;;;;;47.92;9.63;100714.66;4988039;28;105952;-63
2021/09/01 11:39:22;;;;;;;5.07;2.20;;;;;;;47.79;10.12;100718.00;4988255;28;106178;-62
2021/09/01 11:42:00;;;;;;;6.38;2.33;;;;;;;47.25;10.22;100706.19;4988433;28;105978;-62
2021/09/01 11:44:26;;;;;;;8.95;2.65;;;;;;;46.36;10.66;100703.22;4987613;28;106253;-63
2021/09/01 11:46:51;;;;;;;4.25;2.20;;;;;;;43.89;12.07;100698.91;4987696;28;106305;-63
2021/09/01 11:49:17;;;;;;;7.35;2.25;;;;;;;41.41;14.05;100703.22;4987185;28;106091;-61
2021/09/01 11:51:44;;;;;;;3.08;1.95;;;;;;;38.96;15.95;100710.91;4988225;28;106420;-64
2021/09/01 11:54:11;;;;;;;5.18;2.40;;;;;;;38.34;16.94;100710.91;4987009;28;106539;-65
2021/09/01 11:56:37;;;;;;;4.07;2.30;;;;;;;38.12;17.12;100691.88;4987502;28;106630;-65
2021/09/01 11:59:10;;;;;;;4.13;2.15;;;;;;;37.81;17.36;100698.75;4987347;28;106203;-65
2021/09/01 12:01:43;;;;;;;6.80;2.65;;;;;;;37.43;18.23;100701.38;4988575;28;105912;-65
2021/09/01 12:04:08;;;;;;;11.90;6.03;;;;;;;37.55;18.37;100697.84;4987853;28;106121;-65
2021/09/01 12:06:42;;;;;;;10.52;4.10;;;;;;;37.36;18.62;100700.28;4987487;28;105873;-65
2021/09/01 12:09:13;;;;;;;5.10;2.38;;;;;;;37.36;18.42;100692.78;4987079;28;105976;-65
2021/09/01 12:11:59;;;;;;;6.78;2.35;;;;;;;37.28;18.88;100699.19;4988519;28;105933;-66
2021/09/01 12:14:30;;;;;;;6.43;2.30;;;;;;;36.87;19.17;100698.06;4986529;28;106218;-65
2021/09/01 12:17:20;;;;;;;4.68;2.30;;;;;;;36.38;19.18;100688.16;4990867;28;106109;-65
2021/09/01 12:19:46;;;;;;;6.22;2.30;;;;;;;35.59;20.07;100710.50;4990836;28;106611;-64
2021/09/01 12:22:11;;;;;;;8.48;2.35;;;;;;;35.36;20.63;100693.25;4991604;28;106033;-64
2021/09/01 12:24:36;;;;;;;4.45;2.30;;;;;;;34.87;20.73;100706.34;4990945;28;106193;-65
2021/09/01 12:27:07;;;;;;;3.50;2.05;;;;;;;34.35;21.42;100695.94;4990798;28;106615;-64
2021/09/01 12:29:43;;;;;;;5.25;2.47;;;;;;;34.18;21.37;100691.91;4990624;28;106516;-64
2021/09/01 12:32:14;;;;;;;5.30;2.28;;;;;;;34.04;21.88;100694.78;4991419;28;106160;-63
2021/09/01 12:34:42;;;;;;;6.00;2.10;;;;;;;34.08;21.96;100694.97;4990779;28;106372;-63
2021/09/01 12:37:22;;;;;;;5.27;2.43;;;;;;;34.26;22.16;100693.09;4990879;28;106249;-63
2021/09/01 12:39:51;;;;;;;5.28;2.80;;;;;;;34.43;21.93;100697.91;4989859;28;106083;-62
2021/09/01 12:42:24;;;;;;;6.07;2.50;;;;;;;34.30;21.80;100698.84;4991207;28;106046;-62
2021/09/01 12:44:52;;;;;;;4.95;2.28;;;;;;;33.97;21.91;100690.81;4990491;28;106205;-62
2021/09/01 12:47:18;;;;;;;4.38;2.60;;;;;;;33.59;22.45;100692.03;4979179;28;105941;-61
2021/09/01 12:49:45;;;;;;;4.90;2.40;;;;;;;33.01;22.85;100705.50;4951466;28;106319;-62
2021/09/01 12:52:12;;;;;;;8.88;2.88;;;;;;;32.64;23.56;100689.97;4950925;28;106374;-62
2021/09/01 12:54:38;;;;;;;7.32;2.80;;;;;;;32.61;23.36;100691.41;4949054;28;106946;-62
